createdAt,value
2023-04-22T00:01:58.624Z,10.48
2023-04-22T00:04:25.424Z,10.51
2023-04-22T00:06:52.067Z,10.52
2023-04-22T00:09:18.699Z,10.52
2023-04-22T00:11:45.218Z,10.56
2023-04-22T00:14:11.884Z,10.58
2023-04-22T00:16:38.903Z,10.61
2023-04-22T00:19:06.108Z,10.62
2023-04-22T00:21:32.773Z,10.63
2023-04-22T00:23:59.207Z,10.59
2023-04-22T00:26:25.721Z,10.48
2023-04-22T00:28:52.307Z,10.43
2023-04-22T00:31:18.920Z,10.40
2023-04-22T00:33:45.653Z,10.42
2023-04-22T00:36:12.192Z,10.44
2023-04-22T00:38:38.982Z,10.41
2023-04-22T00:41:06.899Z,10.44
2023-04-22T00:43:33.350Z,10.50
2023-04-22T00:46:00.637Z,10.52
2023-04-22T00:48:28.861Z,10.52
2023-04-22T00:50:55.530Z,10.50
2023-04-22T00:53:21.995Z,10.51
2023-04-22T00:55:48.899Z,10.53
2023-04-22T00:58:16.674Z,10.52
2023-04-22T01:00:43.360Z,10.47
2023-04-22T01:03:09.999Z,10.50
2023-04-22T01:05:37.195Z,10.50
2023-04-22T01:08:03.895Z,10.51
2023-04-22T01:10:30.668Z,10.52
2023-04-22T01:12:57.134Z,10.48
2023-04-22T01:15:23.754Z,10.47
2023-04-22T01:17:51.573Z,10.45
2023-04-22T01:20:19.549Z,10.41
2023-04-22T01:22:49.168Z,10.38
2023-04-22T01:25:15.973Z,10.36
2023-04-22T01:27:42.996Z,10.30
2023-04-22T01:30:10.304Z,10.23
2023-04-22T01:32:37.247Z,10.20
2023-04-22T01:35:04.040Z,10.16
2023-04-22T01:37:31.007Z,10.18
2023-04-22T01:39:59.359Z,10.20
2023-04-22T01:42:26.250Z,10.21
2023-04-22T01:44:52.783Z,10.24
2023-04-22T01:47:19.291Z,10.27
2023-04-22T01:49:45.987Z,10.26
2023-04-22T01:52:12.775Z,10.25
2023-04-22T01:54:39.560Z,10.22
2023-04-22T01:57:14.327Z,10.19
2023-04-22T01:59:41.710Z,10.16
2023-04-22T02:02:08.381Z,10.16
2023-04-22T02:04:34.928Z,10.12
2023-04-22T02:07:01.458Z,10.09
2023-04-22T02:09:27.995Z,10.04
2023-04-22T02:11:54.452Z,10.04
2023-04-22T02:14:20.954Z,10.04
2023-04-22T02:16:47.512Z,10.08
2023-04-22T02:19:14.176Z,10.11
2023-04-22T02:21:40.903Z,10.12
2023-04-22T02:24:07.469Z,10.12
2023-04-22T02:26:33.938Z,10.11
2023-04-22T02:29:00.452Z,10.08
2023-04-22T02:31:27.133Z,10.04
2023-04-22T02:33:53.667Z,10.04
2023-04-22T02:36:20.312Z,10.03
2023-04-22T02:38:46.934Z,9.98
2023-04-22T02:41:13.397Z,9.92
2023-04-22T02:43:41.768Z,9.88
2023-04-22T02:46:10.639Z,9.86
2023-04-22T02:48:37.145Z,9.78
2023-04-22T02:51:03.785Z,9.72
2023-04-22T02:53:30.762Z,9.69
2023-04-22T02:55:58.410Z,9.74
2023-04-22T02:58:26.553Z,9.80
2023-04-22T03:00:53.558Z,9.81
2023-04-22T03:03:20.213Z,9.78
2023-04-22T03:05:46.787Z,9.81
2023-04-22T03:08:13.272Z,9.78
2023-04-22T03:10:39.916Z,9.73
2023-04-22T03:13:06.354Z,9.70
2023-04-22T03:15:32.893Z,9.67
2023-04-22T03:17:59.447Z,9.58
2023-04-22T03:20:26.074Z,9.48
2023-04-22T03:22:52.491Z,9.45
2023-04-22T03:25:19.241Z,9.45
2023-04-22T03:27:45.677Z,9.44
2023-04-22T03:30:12.380Z,9.44
2023-04-22T03:32:38.969Z,9.44
2023-04-22T03:35:06.050Z,9.40
2023-04-22T03:37:32.970Z,9.38
2023-04-22T03:39:59.454Z,9.40
2023-04-22T03:42:26.026Z,9.47
2023-04-22T03:44:52.898Z,9.51
2023-04-22T03:47:19.341Z,9.51
2023-04-22T03:49:46.636Z,9.42
2023-04-22T03:52:13.114Z,9.32
2023-04-22T03:54:39.672Z,9.24
2023-04-22T03:57:06.148Z,9.19
2023-04-22T03:59:32.692Z,9.17
2023-04-22T04:01:59.350Z,9.11
2023-04-22T04:04:26.732Z,9.07
2023-04-22T04:06:53.607Z,9.04
2023-04-22T04:09:20.206Z,9.03
2023-04-22T04:11:46.839Z,9.05
2023-04-22T04:14:13.382Z,9.07
2023-04-22T04:16:39.874Z,9.07
2023-04-22T04:19:06.871Z,9.00
2023-04-22T04:21:34.126Z,8.95
2023-04-22T04:24:01.014Z,8.87
2023-04-22T04:26:30.161Z,8.80
2023-04-22T04:28:56.837Z,8.72
2023-04-22T04:31:24.819Z,8.68
2023-04-22T04:33:52.516Z,8.70
2023-04-22T04:36:19.893Z,8.70
2023-04-22T04:38:47.774Z,8.67
2023-04-22T04:41:14.660Z,8.66
2023-04-22T04:43:41.247Z,8.68
2023-04-22T04:46:08.478Z,8.67
2023-04-22T04:48:36.334Z,8.63
2023-04-22T04:51:04.495Z,8.65
2023-04-22T04:53:30.974Z,8.67
2023-04-22T04:55:57.553Z,8.65
2023-04-22T04:58:24.008Z,8.65
2023-04-22T05:00:50.460Z,8.63
2023-04-22T05:03:17.226Z,8.66
2023-04-22T05:05:43.898Z,8.70
2023-04-22T05:08:10.390Z,8.78
2023-04-22T05:10:36.908Z,8.83
2023-04-22T05:13:04.352Z,8.90
2023-04-22T05:15:31.255Z,8.97
2023-04-22T05:17:57.737Z,8.99
2023-04-22T05:20:24.441Z,9.00
2023-04-22T05:22:50.929Z,9.00
2023-04-22T05:25:17.475Z,9.01
2023-04-22T05:27:43.945Z,9.09
2023-04-22T05:30:10.949Z,9.20
2023-04-22T05:32:37.456Z,9.30
2023-04-22T05:35:04.437Z,9.37
2023-04-22T05:37:31.239Z,9.43
2023-04-22T05:39:57.851Z,9.45
2023-04-22T05:42:24.340Z,9.45
2023-04-22T05:44:51.266Z,9.45
2023-04-22T05:47:17.761Z,9.54
2023-04-22T05:49:44.311Z,9.63
2023-04-22T05:52:10.801Z,9.71
2023-04-22T05:54:37.572Z,9.82
2023-04-22T06:00:56.804Z,10.27
2023-04-22T06:03:23.513Z,10.39
2023-04-22T06:05:50.375Z,10.53
2023-04-22T06:08:17.007Z,10.68
2023-04-22T06:10:43.481Z,10.79
2023-04-22T06:13:09.918Z,10.87
2023-04-22T06:15:36.569Z,10.99
2023-04-22T06:18:03.207Z,11.16
2023-04-22T06:20:32.702Z,11.39
2023-04-22T06:22:59.183Z,11.62
2023-04-22T06:25:25.733Z,11.85
2023-04-22T06:27:52.290Z,12.13
2023-04-22T06:30:18.938Z,12.28
2023-04-22T06:32:45.458Z,12.50
2023-04-22T06:35:12.053Z,12.72
2023-04-22T06:37:38.678Z,12.81
2023-04-22T06:40:05.710Z,12.92
2023-04-22T06:42:32.187Z,12.98
2023-04-22T06:44:58.712Z,13.02
2023-04-22T06:47:25.313Z,13.12
2023-04-22T06:49:53.198Z,13.23
2023-04-22T06:52:21.019Z,13.30
2023-04-22T06:54:48.427Z,13.38
2023-04-22T06:57:15.045Z,13.50
2023-04-22T06:59:43.158Z,13.48
2023-04-22T07:02:11.148Z,13.49
2023-04-22T07:04:37.876Z,13.52
2023-04-22T07:07:04.883Z,13.47
2023-04-22T07:09:31.414Z,13.41
2023-04-22T07:11:59.043Z,13.22
2023-04-22T07:14:27.478Z,13.22
2023-04-22T07:16:54.463Z,13.19
2023-04-22T07:19:21.256Z,13.33
2023-04-22T07:21:48.366Z,13.64
2023-04-22T07:24:15.617Z,13.98
2023-04-22T07:26:42.792Z,14.20
2023-04-22T07:29:09.412Z,14.54
2023-04-22T07:31:36.626Z,14.90
2023-04-22T07:34:03.315Z,15.02
2023-04-22T07:36:29.926Z,15.36
2023-04-22T07:38:56.424Z,15.66
2023-04-22T07:41:22.952Z,15.74
2023-04-22T07:43:49.413Z,15.79
2023-04-22T07:46:16.053Z,16.01
2023-04-22T07:48:43.041Z,16.30
2023-04-22T07:51:09.598Z,16.65
2023-04-22T07:53:36.119Z,16.87
2023-04-22T07:56:03.286Z,17.23
2023-04-22T07:58:29.706Z,17.50
2023-04-22T08:00:56.262Z,17.85
2023-04-22T08:03:23.430Z,17.98
2023-04-22T08:05:50.105Z,18.21
2023-04-22T08:08:16.784Z,18.41
2023-04-22T08:10:43.392Z,18.48
2023-04-22T08:13:09.968Z,18.59
2023-04-22T08:15:36.578Z,18.53
2023-04-22T08:18:03.209Z,18.56
2023-04-22T08:20:29.757Z,18.51
2023-04-22T08:23:00.688Z,18.32
2023-04-22T08:25:28.281Z,18.40
2023-04-22T08:27:55.120Z,18.37
2023-04-22T08:30:21.757Z,18.53
2023-04-22T08:32:48.442Z,18.53
2023-04-22T08:35:15.058Z,18.72
2023-04-22T08:37:41.963Z,18.80
2023-04-22T08:40:09.057Z,18.89
2023-04-22T08:42:35.840Z,19.06
2023-04-22T08:45:04.055Z,19.19
2023-04-22T08:47:35.731Z,19.40
2023-04-22T08:50:04.391Z,19.76
2023-04-22T08:52:31.960Z,20.06
2023-04-22T08:54:59.025Z,20.47
2023-04-22T08:57:26.730Z,20.48
2023-04-22T08:59:55.518Z,20.73
2023-04-22T09:02:24.721Z,20.33
2023-04-22T09:04:53.659Z,20.24
2023-04-22T09:07:31.412Z,20.12
2023-04-22T09:09:58.771Z,20.10
2023-04-22T09:12:26.323Z,20.41
2023-04-22T09:14:53.056Z,20.83
2023-04-22T09:17:33.412Z,20.55
2023-04-22T09:20:01.579Z,20.70
2023-04-22T09:22:29.798Z,20.43
2023-04-22T09:24:56.324Z,20.29
2023-04-22T09:27:25.492Z,20.78
2023-04-22T09:29:54.905Z,21.18
2023-04-22T09:32:25.912Z,21.43
2023-04-22T09:34:54.489Z,21.36
2023-04-22T09:37:42.523Z,21.97
2023-04-22T09:40:18.361Z,22.27
2023-04-22T09:42:49.838Z,21.87
2023-04-22T09:45:37.404Z,21.99
2023-04-22T09:48:10.856Z,21.95
2023-04-22T09:50:38.843Z,22.36
2023-04-22T09:53:08.035Z,22.19
2023-04-22T09:55:41.411Z,22.62
2023-04-22T09:58:13.258Z,22.44
2023-04-22T10:00:47.677Z,22.25
2023-04-22T10:03:15.552Z,22.67
2023-04-22T10:05:45.316Z,23.19
2023-04-22T10:08:13.839Z,23.69
2023-04-22T10:10:40.844Z,23.48
2023-04-22T10:13:07.914Z,23.83
2023-04-22T10:15:49.432Z,23.99
2023-04-22T10:18:21.519Z,23.85
2023-04-22T10:20:49.237Z,24.41
2023-04-22T10:23:20.271Z,23.88
2023-04-22T10:25:53.738Z,24.10
2023-04-22T10:28:22.181Z,24.61
2023-04-22T10:30:49.520Z,24.90
2023-04-22T10:33:28.651Z,24.96
2023-04-22T10:36:14.169Z,25.25
2023-04-22T10:39:00.925Z,25.69
2023-04-22T10:41:32.970Z,26.33
2023-04-22T10:44:01.699Z,26.45
2023-04-22T10:46:35.064Z,26.49
2023-04-22T10:49:08.890Z,26.65
2023-04-22T10:51:51.612Z,26.85
2023-04-22T10:54:32.654Z,26.66
2023-04-22T10:57:07.660Z,26.45
2023-04-22T10:59:56.393Z,26.51
2023-04-22T11:02:23.897Z,26.21
2023-04-22T11:04:54.525Z,26.54
2023-04-22T11:07:22.947Z,27.22
2023-04-22T11:10:05.467Z,27.47
2023-04-22T11:12:42.741Z,27.94
2023-04-22T11:15:13.224Z,28.36
2023-04-22T11:17:43.922Z,28.66
2023-04-22T11:20:12.809Z,29.08
2023-04-22T11:22:44.439Z,28.77
2023-04-22T11:25:11.126Z,28.79
2023-04-22T11:27:38.553Z,29.08
2023-04-22T11:30:19.638Z,29.41
2023-04-22T11:32:48.652Z,29.54
2023-04-22T11:35:19.979Z,29.20
2023-04-22T11:37:47.973Z,29.03
2023-04-22T11:40:30.030Z,29.17
2023-04-22T11:42:59.853Z,29.17
2023-04-22T11:45:27.658Z,29.47
2023-04-22T11:47:55.298Z,30.21
2023-04-22T11:50:30.641Z,29.65
2023-04-22T11:52:58.210Z,29.13
2023-04-22T11:55:31.048Z,28.71
2023-04-22T11:57:59.053Z,28.44
2023-04-22T12:00:31.932Z,28.71
2023-04-22T12:03:04.128Z,30.54
2023-04-22T12:05:42.615Z,31.15
2023-04-22T12:08:15.005Z,30.54
2023-04-22T12:10:51.832Z,29.66
2023-04-22T12:13:20.258Z,30.01
2023-04-22T12:15:47.028Z,31.34
2023-04-22T12:18:13.868Z,32.22
2023-04-22T12:20:42.043Z,32.90
2023-04-22T12:23:13.824Z,33.37
2023-04-22T12:25:42.130Z,33.59
2023-04-22T12:28:08.969Z,33.43
2023-04-22T12:30:35.500Z,31.97
2023-04-22T12:33:02.125Z,31.35
2023-04-22T12:35:28.583Z,30.62
2023-04-22T12:37:55.098Z,30.45
2023-04-22T12:40:21.612Z,29.33
2023-04-22T12:42:48.054Z,29.41
2023-04-22T12:45:14.625Z,29.50
2023-04-22T12:47:41.291Z,29.14
2023-04-22T12:50:07.927Z,29.76
2023-04-22T12:52:35.583Z,29.07
2023-04-22T12:55:02.451Z,29.48
2023-04-22T12:57:28.962Z,29.84
2023-04-22T12:59:55.710Z,29.35
2023-04-22T13:02:22.482Z,28.92
2023-04-22T13:04:49.001Z,28.51
2023-04-22T13:07:17.414Z,28.75
2023-04-22T13:09:44.431Z,28.18
2023-04-22T13:12:11.556Z,27.49
2023-04-22T13:14:38.129Z,27.53
2023-04-22T13:17:04.612Z,26.95
2023-04-22T13:19:31.933Z,26.57
2023-04-22T13:21:58.437Z,26.51
2023-04-22T13:24:24.904Z,26.19
2023-04-22T13:26:51.383Z,25.97
2023-04-22T13:29:17.963Z,26.01
2023-04-22T13:31:44.841Z,26.15
2023-04-22T13:34:12.166Z,26.14
2023-04-22T13:36:38.678Z,25.88
2023-04-22T13:39:05.155Z,25.51
2023-04-22T13:41:31.814Z,25.31
2023-04-22T13:43:59.702Z,25.14
2023-04-22T13:46:27.253Z,25.27
2023-04-22T13:48:54.816Z,25.41
2023-04-22T13:51:21.271Z,25.50
2023-04-22T13:53:47.871Z,25.53
2023-04-22T13:56:14.594Z,25.63
2023-04-22T13:58:42.540Z,25.56
2023-04-22T14:01:09.383Z,26.20
2023-04-22T14:03:36.563Z,26.69
2023-04-22T14:06:03.937Z,26.81
2023-04-22T14:08:30.751Z,27.10
2023-04-22T14:10:59.347Z,27.76
2023-04-22T14:13:30.385Z,28.08
2023-04-22T14:15:57.881Z,28.17
2023-04-22T14:18:24.918Z,28.00
2023-04-22T14:20:52.475Z,27.87
2023-04-22T14:23:19.687Z,28.09
2023-04-22T14:25:47.350Z,28.80
2023-04-22T14:28:15.071Z,29.04
2023-04-22T14:30:42.402Z,28.53
2023-04-22T14:33:09.651Z,27.84
2023-04-22T14:35:37.770Z,27.63
2023-04-22T14:38:06.628Z,27.59
2023-04-22T14:40:33.173Z,27.22
2023-04-22T14:43:02.119Z,26.62
2023-04-22T14:45:30.758Z,26.25
2023-04-22T14:47:58.919Z,26.31
2023-04-22T14:50:25.959Z,26.67
2023-04-22T14:52:53.072Z,26.93
2023-04-22T14:55:23.844Z,27.10
2023-04-22T14:57:53.939Z,27.00
2023-04-22T15:00:20.546Z,26.50
2023-04-22T15:02:47.269Z,26.35
2023-04-22T15:05:13.910Z,26.14
2023-04-22T15:07:40.456Z,25.50
2023-04-22T15:10:07.861Z,25.15
2023-04-22T15:12:34.491Z,24.89
2023-04-22T15:15:00.995Z,24.71
2023-04-22T15:17:29.027Z,24.64
2023-04-22T15:19:57.716Z,24.72
2023-04-22T15:22:25.444Z,24.51
2023-04-22T15:24:52.015Z,24.58
2023-04-22T15:27:18.927Z,24.64
2023-04-22T15:29:46.689Z,24.55
2023-04-22T15:32:13.326Z,24.64
2023-04-22T15:34:39.922Z,24.44
2023-04-22T15:37:06.539Z,24.00
2023-04-22T15:39:33.023Z,23.75
2023-04-22T15:41:59.453Z,23.74
2023-04-22T15:44:25.917Z,23.45
2023-04-22T15:46:53.094Z,23.39
2023-04-22T15:49:19.936Z,23.29
2023-04-22T15:51:46.464Z,23.08
2023-04-22T15:54:12.971Z,22.87
2023-04-22T15:56:39.453Z,22.68
2023-04-22T15:59:05.902Z,22.56
2023-04-22T16:01:32.488Z,22.52
2023-04-22T16:03:59.174Z,22.40
2023-04-22T16:06:25.836Z,22.34
2023-04-22T16:08:52.458Z,22.13
2023-04-22T16:11:18.966Z,21.94
2023-04-22T16:13:46.440Z,21.76
2023-04-22T16:16:13.051Z,21.59
2023-04-22T16:18:42.096Z,21.49
2023-04-22T16:21:10.716Z,21.41
2023-04-22T16:23:37.504Z,21.33
2023-04-22T16:26:05.741Z,21.14
2023-04-22T16:28:32.470Z,21.01
2023-04-22T16:30:59.225Z,21.00
2023-04-22T16:33:25.908Z,20.99
2023-04-22T16:35:52.475Z,20.78
2023-04-22T16:38:19.086Z,20.65
2023-04-22T16:40:46.062Z,20.56
2023-04-22T16:43:13.213Z,20.52
2023-04-22T16:45:39.774Z,20.38
2023-04-22T16:48:06.358Z,20.35
2023-04-22T16:50:32.912Z,20.33
2023-04-22T16:52:59.374Z,20.37
2023-04-22T16:55:25.870Z,20.33
2023-04-22T16:57:52.918Z,20.37
2023-04-22T17:00:19.687Z,20.45
2023-04-22T17:02:46.329Z,20.41
2023-04-22T17:05:13.094Z,20.32
2023-04-22T17:07:39.559Z,20.23
2023-04-22T17:10:06.761Z,20.16
2023-04-22T17:12:33.703Z,20.13
2023-04-22T17:15:00.443Z,20.10
2023-04-22T17:17:27.105Z,20.07
2023-04-22T17:19:53.670Z,19.99
2023-04-22T17:22:20.256Z,19.89
2023-04-22T17:24:46.837Z,19.89
2023-04-22T17:27:15.918Z,19.78
2023-04-22T17:29:42.810Z,19.71
2023-04-22T17:32:09.401Z,19.62
2023-04-22T17:34:36.070Z,19.46
2023-04-22T17:37:02.580Z,19.41
2023-04-22T17:39:29.228Z,19.30
2023-04-22T17:41:55.789Z,19.20
2023-04-22T17:44:22.391Z,19.08
2023-04-22T17:46:48.903Z,18.99
2023-04-22T17:49:15.423Z,18.87
2023-04-22T17:51:43.043Z,18.75
2023-04-22T17:54:09.532Z,18.64
2023-04-22T17:56:36.006Z,18.54
2023-04-22T17:59:02.510Z,18.43
2023-04-22T18:01:29.667Z,18.40
2023-04-22T18:03:56.696Z,18.25
2023-04-22T18:06:23.360Z,18.10
2023-04-22T18:08:49.996Z,18.04
2023-04-22T18:11:16.702Z,17.99
2023-04-22T18:13:43.177Z,17.93
2023-04-22T18:16:09.688Z,17.89
2023-04-22T18:18:36.473Z,17.82
2023-04-22T18:21:03.254Z,17.75
2023-04-22T18:23:29.823Z,17.69
2023-04-22T18:30:19.953Z,17.61
2023-04-22T18:32:46.539Z,17.56
2023-04-22T18:35:13.025Z,17.55
2023-04-22T18:37:39.557Z,17.53
2023-04-22T18:40:07.106Z,17.53
2023-04-22T18:42:33.974Z,17.52
2023-04-22T18:45:01.943Z,17.51
2023-04-22T18:47:30.216Z,17.48
2023-04-22T18:49:58.034Z,17.48
2023-04-22T18:52:24.995Z,17.48
2023-04-22T18:54:51.473Z,17.43
2023-04-22T18:57:18.035Z,17.35
2023-04-22T18:59:44.532Z,17.31
2023-04-22T19:02:13.400Z,17.22
2023-04-22T19:04:40.285Z,17.10
2023-04-22T19:07:07.106Z,16.99
2023-04-22T19:09:33.656Z,16.81
2023-04-22T19:12:00.784Z,16.66
2023-04-22T19:14:27.259Z,16.51
2023-04-22T19:16:53.706Z,16.39
2023-04-22T19:19:20.199Z,16.25
2023-04-22T19:21:46.814Z,16.17
2023-04-22T19:24:14.438Z,16.11
2023-04-22T19:26:41.246Z,16.00
2023-04-22T19:29:07.922Z,15.91
2023-04-22T19:31:34.551Z,15.80
2023-04-22T19:34:02.725Z,15.71
2023-04-22T19:36:29.216Z,15.67
2023-04-22T19:38:55.825Z,15.58
2023-04-22T19:41:22.282Z,15.49
2023-04-22T19:43:48.965Z,15.43
2023-04-22T19:46:15.508Z,15.35
2023-04-22T19:48:42.253Z,15.27
2023-04-22T19:51:10.133Z,15.24
2023-04-22T19:53:37.095Z,15.19
2023-04-22T19:56:03.696Z,15.11
2023-04-22T19:58:30.727Z,15.05
2023-04-22T20:00:57.515Z,15.04
2023-04-22T20:03:25.336Z,15.02
2023-04-22T20:05:52.234Z,14.98
2023-04-22T20:08:19.922Z,14.96
2023-04-22T20:10:49.647Z,14.98
2023-04-22T20:13:17.505Z,14.94
2023-04-22T20:15:44.603Z,14.93
2023-04-22T20:18:11.460Z,14.94
2023-04-22T20:20:40.342Z,14.97
2023-04-22T20:23:10.674Z,14.99
2023-04-22T20:25:44.327Z,15.03
2023-04-22T20:28:11.068Z,15.09
2023-04-22T20:30:37.958Z,15.07
2023-04-22T20:33:04.703Z,14.99
2023-04-22T20:35:32.131Z,14.94
2023-04-22T20:38:00.561Z,14.87
2023-04-22T20:40:29.079Z,14.80
2023-04-22T20:42:57.841Z,14.76
2023-04-22T20:45:24.555Z,14.65
2023-04-22T20:47:51.552Z,14.62
2023-04-22T20:50:18.705Z,14.62
2023-04-22T20:52:45.211Z,14.59
2023-04-22T20:55:11.728Z,14.61
2023-04-22T20:57:38.290Z,14.65
2023-04-22T21:00:07.370Z,14.68
2023-04-22T21:02:35.560Z,14.69
2023-04-22T21:05:03.938Z,14.68
2023-04-22T21:07:31.031Z,14.66
2023-04-22T21:09:58.034Z,14.67
2023-04-22T21:12:24.819Z,14.67
2023-04-22T21:14:51.670Z,14.64
2023-04-22T21:17:25.612Z,14.62
2023-04-22T21:19:53.434Z,14.49
2023-04-22T21:22:24.402Z,14.39
2023-04-22T21:24:51.999Z,14.33
2023-04-22T21:27:19.728Z,14.29
2023-04-22T21:29:46.857Z,14.26
2023-04-22T21:32:13.494Z,14.22
2023-04-22T21:34:40.907Z,14.24
2023-04-22T21:37:08.207Z,14.28
2023-04-22T21:39:35.315Z,14.30
2023-04-22T21:42:02.940Z,14.29
2023-04-22T21:44:29.468Z,14.26
2023-04-22T21:46:56.089Z,14.23
2023-04-22T21:49:23.111Z,14.22
2023-04-22T21:51:49.943Z,14.18
2023-04-22T21:54:16.782Z,14.10
2023-04-22T21:56:43.325Z,14.05
2023-04-22T21:59:09.876Z,14.04
2023-04-22T22:01:36.462Z,14.05
2023-04-22T22:04:03.675Z,14.05
2023-04-22T22:06:30.488Z,14.08
2023-04-22T22:08:56.954Z,14.06
2023-04-22T22:11:30.987Z,14.10
2023-04-22T22:13:58.340Z,14.11
2023-04-22T22:16:25.855Z,14.05
2023-04-22T22:18:52.685Z,14.04
2023-04-22T22:21:19.202Z,14.01
2023-04-22T22:23:45.728Z,13.96
2023-04-22T22:26:12.638Z,13.92
2023-04-22T22:28:39.692Z,13.89
2023-04-22T22:31:06.958Z,13.87
2023-04-22T22:33:33.727Z,13.88
2023-04-22T22:36:00.449Z,13.89
2023-04-22T22:38:26.984Z,13.89
2023-04-22T22:40:53.437Z,13.90
2023-04-22T22:43:20.166Z,13.91
2023-04-22T22:45:46.796Z,13.91
2023-04-22T22:48:13.384Z,13.88
2023-04-22T22:50:40.665Z,13.85
2023-04-22T22:53:07.199Z,13.85
2023-04-22T22:55:34.112Z,13.81
2023-04-22T22:58:00.753Z,13.81
2023-04-22T23:00:27.471Z,13.76
2023-04-22T23:02:54.378Z,13.72
2023-04-22T23:05:21.266Z,13.72
2023-04-22T23:07:47.736Z,13.73
2023-04-22T23:10:14.252Z,13.73
2023-04-22T23:12:41.154Z,13.74
2023-04-22T23:15:07.941Z,13.80
2023-04-22T23:17:35.349Z,13.87
2023-04-22T23:20:03.398Z,13.87
2023-04-22T23:22:32.236Z,13.81
2023-04-22T23:24:59.072Z,13.75
2023-04-22T23:27:25.953Z,13.69
2023-04-22T23:29:52.756Z,13.64
2023-04-22T23:32:21.212Z,13.57
2023-04-22T23:34:49.612Z,13.50
2023-04-22T23:37:16.421Z,13.50
2023-04-22T23:39:43.465Z,13.49
2023-04-22T23:42:10.505Z,13.48
2023-04-22T23:44:37.226Z,13.53
2023-04-22T23:47:04.460Z,13.59
2023-04-22T23:49:30.944Z,13.59
2023-04-22T23:51:57.396Z,13.58
2023-04-22T23:54:24.033Z,13.49
2023-04-22T23:56:51.577Z,13.48
2023-04-22T23:59:18.269Z,13.42
